sensor_id;sensor_type;location;lat;lon;timestamp;pressure;altitude;pressure_sealevel;temperature;humidity
76732;BME280;65656;51.130;13.658;2023-08-08T00:03:18;99024.06;;;11.03;100.00
76732;BME280;65656;51.130;13.658;2023-08-08T00:07:20;99022.41;;;11.02;100.00
76732;BME280;65656;51.130;13.658;2023-08-08T00:11:21;99013.31;;;10.97;100.00
76732;BME280;65656;51.130;13.658;2023-08-08T00:15:24;99018.72;;;10.86;100.00
76732;BME280;65656;51.130;13.658;2023-08-08T00:19:26;99020.84;;;10.79;100.00
76732;BME280;65656;51.130;13.658;2023-08-08T00:23:27;99009.63;;;10.81;100.00
76732;BME280;65656;51.130;13.658;2023-08-08T00:27:29;99010.91;;;10.68;100.00
76732;BME280;65656;51.130;13.658;2023-08-08T00:31:32;99008.44;;;10.67;100.00
76732;BME280;65656;51.130;13.658;2023-08-08T00:35:33;99006.75;;;10.66;100.00
76732;BME280;65656;51.130;13.658;2023-08-08T00:39:35;99008.94;;;10.64;100.00
76732;BME280;65656;51.130;13.658;2023-08-08T00:43:36;99006.75;;;10.60;100.00
76732;BME280;65656;51.130;13.658;2023-08-08T00:47:39;99002.50;;;10.80;100.00
76732;BME280;65656;51.130;13.658;2023-08-08T00:51:42;99004.81;;;10.93;100.00
76732;BME280;65656;51.130;13.658;2023-08-08T00:55:43;99007.00;;;10.96;100.00
76732;BME280;65656;51.130;13.658;2023-08-08T00:59:45;99007.97;;;10.80;100.00
76732;BME280;65656;51.130;13.658;2023-08-08T01:03:48;99007.38;;;10.73;100.00
76732;BME280;65656;51.130;13.658;2023-08-08T01:07:54;99002.72;;;10.73;100.00
76732;BME280;65656;51.130;13.658;2023-08-08T01:11:59;99009.19;;;10.94;100.00
76732;BME280;65656;51.130;13.658;2023-08-08T01:16:02;99001.19;;;10.82;100.00
76732;BME280;65656;51.130;13.658;2023-08-08T01:20:07;98998.91;;;10.74;100.00
76732;BME280;65656;51.130;13.658;2023-08-08T01:24:16;99000.16;;;10.62;100.00
76732;BME280;65656;51.130;13.658;2023-08-08T01:28:20;98987.84;;;10.64;100.00
76732;BME280;65656;51.130;13.658;2023-08-08T01:32:22;98988.13;;;10.63;100.00
76732;BME280;65656;51.130;13.658;2023-08-08T01:36:27;98980.31;;;10.49;100.00
76732;BME280;65656;51.130;13.658;2023-08-08T01:40:32;98986.34;;;10.46;100.00
76732;BME280;65656;51.130;13.658;2023-08-08T01:44:34;98988.31;;;10.51;100.00
76732;BME280;65656;51.130;13.658;2023-08-08T01:48:36;98995.22;;;10.58;100.00
76732;BME280;65656;51.130;13.658;2023-08-08T01:52:38;98990.56;;;10.59;100.00
76732;BME280;65656;51.130;13.658;2023-08-08T01:56:41;98994.38;;;10.58;100.00
76732;BME280;65656;51.130;13.658;2023-08-08T02:00:42;98990.03;;;10.62;100.00
76732;BME280;65656;51.130;13.658;2023-08-08T02:04:44;98996.88;;;10.59;100.00
76732;BME280;65656;51.130;13.658;2023-08-08T02:08:46;99002.00;;;10.51;100.00
76732;BME280;65656;51.130;13.658;2023-08-08T02:12:48;99000.97;;;10.30;100.00
76732;BME280;65656;51.130;13.658;2023-08-08T02:16:50;99000.50;;;10.38;100.00
76732;BME280;65656;51.130;13.658;2023-08-08T02:20:51;99001.03;;;10.35;100.00
76732;BME280;65656;51.130;13.658;2023-08-08T02:24:53;99002.63;;;10.31;100.00
76732;BME280;65656;51.130;13.658;2023-08-08T02:28:56;99000.50;;;10.38;100.00
76732;BME280;65656;51.130;13.658;2023-08-08T02:32:57;98993.50;;;10.52;100.00
76732;BME280;65656;51.130;13.658;2023-08-08T02:36:59;98994.47;;;10.36;100.00
76732;BME280;65656;51.130;13.658;2023-08-08T02:41:01;98993.94;;;10.39;100.00
76732;BME280;65656;51.130;13.658;2023-08-08T02:45:05;98993.88;;;10.34;100.00
76732;BME280;65656;51.130;13.658;2023-08-08T02:49:06;98993.56;;;10.30;100.00
76732;BME280;65656;51.130;13.658;2023-08-08T02:53:08;98989.53;;;10.38;100.00
76732;BME280;65656;51.130;13.658;2023-08-08T02:57:10;98989.63;;;10.48;100.00
76732;BME280;65656;51.130;13.658;2023-08-08T03:01:13;98981.38;;;10.43;100.00
76732;BME280;65656;51.130;13.658;2023-08-08T03:05:14;98983.16;;;10.27;100.00
76732;BME280;65656;51.130;13.658;2023-08-08T03:09:16;98995.50;;;10.30;100.00
76732;BME280;65656;51.130;13.658;2023-08-08T03:13:17;98985.09;;;10.32;100.00
76732;BME280;65656;51.130;13.658;2023-08-08T03:17:20;98996.88;;;10.32;100.00
76732;BME280;65656;51.130;13.658;2023-08-08T03:21:22;98993.78;;;10.24;100.00
76732;BME280;65656;51.130;13.658;2023-08-08T03:25:23;98988.81;;;10.21;100.00
76732;BME280;65656;51.130;13.658;2023-08-08T03:29:25;98992.00;;;10.13;100.00
76732;BME280;65656;51.130;13.658;2023-08-08T03:33:28;98987.47;;;10.01;100.00
76732;BME280;65656;51.130;13.658;2023-08-08T03:37:29;98985.22;;;9.93;100.00
76732;BME280;65656;51.130;13.658;2023-08-08T03:41:31;98987.31;;;9.86;100.00
76732;BME280;65656;51.130;13.658;2023-08-08T03:45:33;98987.31;;;9.86;100.00
76732;BME280;65656;51.130;13.658;2023-08-08T03:49:36;98981.91;;;9.91;100.00
76732;BME280;65656;51.130;13.658;2023-08-08T03:53:37;98991.19;;;9.90;100.00
76732;BME280;65656;51.130;13.658;2023-08-08T03:57:39;98985.66;;;9.85;100.00
76732;BME280;65656;51.130;13.658;2023-08-08T04:01:40;98973.69;;;9.91;100.00
76732;BME280;65656;51.130;13.658;2023-08-08T04:05:45;98978.78;;;10.04;100.00
76732;BME280;65656;51.130;13.658;2023-08-08T04:09:47;98974.50;;;10.14;100.00
76732;BME280;65656;51.130;13.658;2023-08-08T04:13:48;98971.06;;;10.23;100.00
76732;BME280;65656;51.130;13.658;2023-08-08T04:17:50;98968.09;;;10.30;100.00
76732;BME280;65656;51.130;13.658;2023-08-08T04:21:53;98978.03;;;10.36;100.00
76732;BME280;65656;51.130;13.658;2023-08-08T04:25:54;98972.16;;;10.54;100.00
76732;BME280;65656;51.130;13.658;2023-08-08T04:29:56;98968.31;;;10.55;100.00
76732;BME280;65656;51.130;13.658;2023-08-08T04:33:57;98976.25;;;10.84;100.00
76732;BME280;65656;51.130;13.658;2023-08-08T04:38:00;98979.53;;;10.86;100.00
76732;BME280;65656;51.130;13.658;2023-08-08T04:42:02;98986.72;;;10.92;100.00
76732;BME280;65656;51.130;13.658;2023-08-08T04:46:04;98982.84;;;10.88;100.00
76732;BME280;65656;51.130;13.658;2023-08-08T04:50:07;98986.19;;;10.95;100.00
76732;BME280;65656;51.130;13.658;2023-08-08T04:54:10;98979.03;;;10.94;100.00
76732;BME280;65656;51.130;13.658;2023-08-08T04:58:11;98985.63;;;10.93;100.00
76732;BME280;65656;51.130;13.658;2023-08-08T05:02:13;98991.16;;;11.03;100.00
76732;BME280;65656;51.130;13.658;2023-08-08T05:06:15;98992.91;;;11.20;100.00
76732;BME280;65656;51.130;13.658;2023-08-08T05:10:17;98985.28;;;11.27;100.00
76732;BME280;65656;51.130;13.658;2023-08-08T05:14:19;98978.78;;;11.38;100.00
76732;BME280;65656;51.130;13.658;2023-08-08T05:18:21;98974.72;;;11.51;100.00
76732;BME280;65656;51.130;13.658;2023-08-08T05:22:22;98978.94;;;11.73;100.00
76732;BME280;65656;51.130;13.658;2023-08-08T05:26:25;98978.56;;;12.17;100.00
76732;BME280;65656;51.130;13.658;2023-08-08T05:30:27;98980.25;;;12.44;100.00
76732;BME280;65656;51.130;13.658;2023-08-08T05:34:28;98972.56;;;12.71;99.14
76732;BME280;65656;51.130;13.658;2023-08-08T05:38:32;98983.56;;;12.92;96.51
76732;BME280;65656;51.130;13.658;2023-08-08T05:42:35;98978.06;;;13.02;96.86
76732;BME280;65656;51.130;13.658;2023-08-08T05:46:37;98991.25;;;12.90;96.11
76732;BME280;65656;51.130;13.658;2023-08-08T05:50:39;98983.56;;;12.81;95.73
76732;BME280;65656;51.130;13.658;2023-08-08T05:54:40;98981.91;;;12.80;96.40
76732;BME280;65656;51.130;13.658;2023-08-08T05:58:43;98980.28;;;12.79;96.88
76732;BME280;65656;51.130;13.658;2023-08-08T06:02:45;98981.91;;;12.91;95.38
76732;BME280;65656;51.130;13.658;2023-08-08T06:06:46;98992.38;;;12.94;95.23
76732;BME280;65656;51.130;13.658;2023-08-08T06:10:48;98989.63;;;12.89;95.97
76732;BME280;65656;51.130;13.658;2023-08-08T06:14:51;98997.88;;;12.94;94.28
76732;BME280;65656;51.130;13.658;2023-08-08T06:18:53;98998.41;;;12.91;94.84
76732;BME280;65656;51.130;13.658;2023-08-08T06:22:54;98992.34;;;12.83;94.63
76732;BME280;65656;51.130;13.658;2023-08-08T06:26:56;98996.22;;;12.72;95.20
76732;BME280;65656;51.130;13.658;2023-08-08T06:30:59;99005.84;;;12.65;97.02
76732;BME280;65656;51.130;13.658;2023-08-08T06:35:00;98992.38;;;12.63;95.35
76732;BME280;65656;51.130;13.658;2023-08-08T06:39:02;98997.03;;;12.68;98.25
76732;BME280;65656;51.130;13.658;2023-08-08T06:43:03;98997.34;;;12.76;96.41
76732;BME280;65656;51.130;13.658;2023-08-08T06:47:06;99000.06;;;12.87;94.96
76732;BME280;65656;51.130;13.658;2023-08-08T06:51:08;98990.72;;;12.82;96.01
76732;BME280;65656;51.130;13.658;2023-08-08T06:55:10;98991.28;;;12.69;96.43
76732;BME280;65656;51.130;13.658;2023-08-08T06:59:11;99002.81;;;12.81;96.44
76732;BME280;65656;51.130;13.658;2023-08-08T07:03:14;99003.38;;;12.78;94.11
76732;BME280;65656;51.130;13.658;2023-08-08T07:07:16;98983.28;;;12.98;94.27
76732;BME280;65656;51.130;13.658;2023-08-08T07:11:17;98977.50;;;13.25;94.51
76732;BME280;65656;51.130;13.658;2023-08-08T07:15:19;98970.00;;;13.51;91.20
76732;BME280;65656;51.130;13.658;2023-08-08T07:19:22;98977.66;;;13.70;89.85
76732;BME280;65656;51.130;13.658;2023-08-08T07:23:24;98964.06;;;13.88;89.92
76732;BME280;65656;51.130;13.658;2023-08-08T07:27:26;98973.06;;;14.09;86.82
76732;BME280;65656;51.130;13.658;2023-08-08T07:31:28;98976.16;;;13.92;86.88
76732;BME280;65656;51.130;13.658;2023-08-08T07:35:32;98984.84;;;14.15;87.05
76732;BME280;65656;51.130;13.658;2023-08-08T07:39:34;98975.53;;;14.11;87.35
76732;BME280;65656;51.130;13.658;2023-08-08T07:43:35;98980.97;;;14.16;87.72
76732;BME280;65656;51.130;13.658;2023-08-08T07:47:37;98981.34;;;14.54;86.76
76732;BME280;65656;51.130;13.658;2023-08-08T07:51:40;98968.72;;;15.11;84.01
76732;BME280;65656;51.130;13.658;2023-08-08T07:55:41;98970.13;;;14.79;83.03
76732;BME280;65656;51.130;13.658;2023-08-08T07:59:43;98979.03;;;15.00;84.51
76732;BME280;65656;51.130;13.658;2023-08-08T08:03:45;98977.22;;;14.85;83.40
76732;BME280;65656;51.130;13.658;2023-08-08T08:07:48;98987.59;;;14.98;85.13
76732;BME280;65656;51.130;13.658;2023-08-08T08:11:49;98993.38;;;15.02;84.09
76732;BME280;65656;51.130;13.658;2023-08-08T08:15:51;98982.75;;;14.85;82.71
76732;BME280;65656;51.130;13.658;2023-08-08T08:19:52;98989.91;;;14.86;82.60
76732;BME280;65656;51.130;13.658;2023-08-08T08:23:55;98980.44;;;14.97;81.73
76732;BME280;65656;51.130;13.658;2023-08-08T08:27:57;98981.91;;;15.19;81.92
76732;BME280;65656;51.130;13.658;2023-08-08T08:31:59;98968.63;;;15.21;78.07
76732;BME280;65656;51.130;13.658;2023-08-08T08:36:01;98975.91;;;15.12;78.91
76732;BME280;65656;51.130;13.658;2023-08-08T08:40:04;98972.94;;;15.03;79.35
76732;BME280;65656;51.130;13.658;2023-08-08T08:44:06;98991.19;;;14.99;78.82
76732;BME280;65656;51.130;13.658;2023-08-08T08:48:10;98974.53;;;14.80;78.41
76732;BME280;65656;51.130;13.658;2023-08-08T08:52:12;98978.72;;;14.72;79.96
76732;BME280;65656;51.130;13.658;2023-08-08T08:56:15;98974.59;;;14.70;80.35
76732;BME280;65656;51.130;13.658;2023-08-08T09:00:18;98974.84;;;14.73;79.89
76732;BME280;65656;51.130;13.658;2023-08-08T09:04:21;98972.38;;;14.72;79.35
76732;BME280;65656;51.130;13.658;2023-08-08T09:08:23;98985.69;;;14.60;80.09
76732;BME280;65656;51.130;13.658;2023-08-08T09:12:26;98989.00;;;14.62;82.02
76732;BME280;65656;51.130;13.658;2023-08-08T09:16:28;98991.44;;;14.24;85.39
76732;BME280;65656;51.130;13.658;2023-08-08T09:20:30;98995.00;;;13.70;91.64
76732;BME280;65656;51.130;13.658;2023-08-08T09:24:31;99003.03;;;13.51;92.60
76732;BME280;65656;51.130;13.658;2023-08-08T09:28:34;98995.59;;;13.57;94.44
76732;BME280;65656;51.130;13.658;2023-08-08T09:32:36;98990.59;;;13.64;95.47
76732;BME280;65656;51.130;13.658;2023-08-08T09:36:38;98990.00;;;13.77;89.75
76732;BME280;65656;51.130;13.658;2023-08-08T09:40:40;98990.78;;;13.88;90.56
76732;BME280;65656;51.130;13.658;2023-08-08T09:44:43;98982.69;;;14.07;88.76
76732;BME280;65656;51.130;13.658;2023-08-08T09:48:45;98980.50;;;14.09;86.98
76732;BME280;65656;51.130;13.658;2023-08-08T09:52:47;98987.00;;;14.23;86.23
76732;BME280;65656;51.130;13.658;2023-08-08T09:56:49;98985.81;;;14.39;86.58
76732;BME280;65656;51.130;13.658;2023-08-08T10:00:53;98992.31;;;14.64;84.32
76732;BME280;65656;51.130;13.658;2023-08-08T10:04:56;98982.84;;;14.75;82.58
76732;BME280;65656;51.130;13.658;2023-08-08T10:09:01;98985.94;;;14.97;80.71
76732;BME280;65656;51.130;13.658;2023-08-08T10:13:03;98984.50;;;15.05;79.87
76732;BME280;65656;51.130;13.658;2023-08-08T10:17:06;98984.69;;;15.14;78.92
76732;BME280;65656;51.130;13.658;2023-08-08T10:21:08;98983.53;;;15.20;79.36
76732;BME280;65656;51.130;13.658;2023-08-08T10:25:17;98980.09;;;15.33;79.14
76732;BME280;65656;51.130;13.658;2023-08-08T10:29:19;98977.94;;;15.54;77.01
76732;BME280;65656;51.130;13.658;2023-08-08T10:33:25;98969.84;;;15.63;75.33
76732;BME280;65656;51.130;13.658;2023-08-08T10:37:26;98962.31;;;15.92;73.99
76732;BME280;65656;51.130;13.658;2023-08-08T10:41:28;98964.25;;;16.10;73.44
76732;BME280;65656;51.130;13.658;2023-08-08T10:45:30;98961.28;;;16.26;72.81
76732;BME280;65656;51.130;13.658;2023-08-08T10:49:33;98957.78;;;16.20;73.60
76732;BME280;65656;51.130;13.658;2023-08-08T10:53:36;98950.59;;;16.38;72.77
76732;BME280;65656;51.130;13.658;2023-08-08T10:57:37;98948.97;;;16.37;73.05
76732;BME280;65656;51.130;13.658;2023-08-08T11:01:40;98940.28;;;16.25;74.87
76732;BME280;65656;51.130;13.658;2023-08-08T11:05:46;98937.53;;;16.25;72.74
76732;BME280;65656;51.130;13.658;2023-08-08T11:09:48;98935.44;;;16.73;67.70
76732;BME280;65656;51.130;13.658;2023-08-08T11:13:51;98926.81;;;17.35;65.96
76732;BME280;65656;51.130;13.658;2023-08-08T11:17:53;98917.16;;;18.01;65.56
76732;BME280;65656;51.130;13.658;2023-08-08T11:21:56;98910.19;;;17.90;63.80
76732;BME280;65656;51.130;13.658;2023-08-08T11:25:57;98904.66;;;17.90;63.08
76732;BME280;65656;51.130;13.658;2023-08-08T11:30:02;98915.47;;;17.77;62.09
76732;BME280;65656;51.130;13.658;2023-08-08T11:34:04;98904.06;;;17.51;61.99
76732;BME280;65656;51.130;13.658;2023-08-08T11:38:07;98910.16;;;18.03;63.95
76732;BME280;65656;51.130;13.658;2023-08-08T11:42:09;98898.28;;;18.61;58.64
76732;BME280;65656;51.130;13.658;2023-08-08T11:46:12;98892.88;;;18.65;58.35
76732;BME280;65656;51.130;13.658;2023-08-08T11:50:14;98882.88;;;19.00;58.21
76732;BME280;65656;51.130;13.658;2023-08-08T11:54:18;98882.22;;;19.03;57.88
76732;BME280;65656;51.130;13.658;2023-08-08T11:58:20;98870.94;;;19.00;57.20
76732;BME280;65656;51.130;13.658;2023-08-08T12:02:22;98862.16;;;18.53;58.32
76732;BME280;65656;51.130;13.658;2023-08-08T12:06:28;98870.28;;;18.13;57.05
76732;BME280;65656;51.130;13.658;2023-08-08T12:10:31;98868.88;;;18.60;57.32
76732;BME280;65656;51.130;13.658;2023-08-08T12:14:36;98872.19;;;18.04;57.83
76732;BME280;65656;51.130;13.658;2023-08-08T12:18:53;98877.81;;;17.76;60.55
76732;BME280;65656;51.130;13.658;2023-08-08T12:22:55;98879.22;;;17.33;66.98
76732;BME280;65656;51.130;13.658;2023-08-08T12:26:58;98894.25;;;16.53;69.87
76732;BME280;65656;51.130;13.658;2023-08-08T12:31:00;98885.72;;;15.31;82.06
76732;BME280;65656;51.130;13.658;2023-08-08T12:35:02;98885.19;;;14.76;82.59
76732;BME280;65656;51.130;13.658;2023-08-08T12:39:04;98895.84;;;14.59;87.56
76732;BME280;65656;51.130;13.658;2023-08-08T12:43:07;98878.75;;;15.10;83.89
76732;BME280;65656;51.130;13.658;2023-08-08T12:47:08;98872.56;;;16.41;83.34
76732;BME280;65656;51.130;13.658;2023-08-08T12:51:10;98871.25;;;17.45;73.51
76732;BME280;65656;51.130;13.658;2023-08-08T12:55:13;98856.09;;;19.53;66.67
76732;BME280;65656;51.130;13.658;2023-08-08T12:59:15;98864.84;;;18.22;72.42
76732;BME280;65656;51.130;13.658;2023-08-08T13:03:17;98863.44;;;17.19;75.96
76732;BME280;65656;51.130;13.658;2023-08-08T13:07:19;98855.81;;;16.84;78.15
76732;BME280;65656;51.130;13.658;2023-08-08T13:11:20;98863.19;;;16.88;80.06
76732;BME280;65656;51.130;13.658;2023-08-08T13:15:23;98852.41;;;18.64;75.57
76732;BME280;65656;51.130;13.658;2023-08-08T13:19:25;98834.75;;;19.62;64.78
76732;BME280;65656;51.130;13.658;2023-08-08T13:23:26;98833.47;;;18.88;68.41
76732;BME280;65656;51.130;13.658;2023-08-08T13:27:28;98826.94;;;18.62;67.22
76732;BME280;65656;51.130;13.658;2023-08-08T13:31:31;98840.94;;;18.57;66.27
76732;BME280;65656;51.130;13.658;2023-08-08T13:35:33;98833.00;;;18.42;68.49
76732;BME280;65656;51.130;13.658;2023-08-08T13:39:34;98840.31;;;18.60;66.78
76732;BME280;65656;51.130;13.658;2023-08-08T13:43:36;98835.50;;;19.05;63.48
76732;BME280;65656;51.130;13.658;2023-08-08T13:47:39;98812.53;;;22.13;52.92
76732;BME280;65656;51.130;13.658;2023-08-08T13:51:41;98806.13;;;23.12;49.90
76732;BME280;65656;51.130;13.658;2023-08-08T13:55:45;98795.06;;;23.28;50.71
76732;BME280;65656;51.130;13.658;2023-08-08T13:59:46;98804.59;;;22.57;54.28
76732;BME280;65656;51.130;13.658;2023-08-08T14:03:49;98801.19;;;24.51;46.14
76732;BME280;65656;51.130;13.658;2023-08-08T14:07:51;98808.13;;;24.69;39.83
76732;BME280;65656;51.130;13.658;2023-08-08T14:11:52;98807.97;;;23.69;42.21
76732;BME280;65656;51.130;13.658;2023-08-08T14:15:54;98805.69;;;21.31;47.67
76732;BME280;65656;51.130;13.658;2023-08-08T14:19:57;98817.13;;;20.01;50.04
76732;BME280;65656;51.130;13.658;2023-08-08T14:23:58;98839.47;;;18.59;54.64
76732;BME280;65656;51.130;13.658;2023-08-08T14:28:00;98818.38;;;18.50;56.29
76732;BME280;65656;51.130;13.658;2023-08-08T14:32:02;98835.72;;;18.33;55.05
76732;BME280;65656;51.130;13.658;2023-08-08T14:36:05;98816.75;;;18.49;55.03
76732;BME280;65656;51.130;13.658;2023-08-08T14:40:08;98812.69;;;19.91;50.09
76732;BME280;65656;51.130;13.658;2023-08-08T14:44:09;98820.03;;;19.61;51.03
76732;BME280;65656;51.130;13.658;2023-08-08T14:48:11;98816.72;;;21.19;46.58
76732;BME280;65656;51.130;13.658;2023-08-08T14:52:14;98814.72;;;23.31;43.37
76732;BME280;65656;51.130;13.658;2023-08-08T14:56:15;98820.56;;;23.51;41.83
76732;BME280;65656;51.130;13.658;2023-08-08T15:00:17;98817.75;;;23.39;43.98
76732;BME280;65656;51.130;13.658;2023-08-08T15:04:19;98821.56;;;22.64;44.02
76732;BME280;65656;51.130;13.658;2023-08-08T15:08:22;98832.16;;;21.07;47.21
76732;BME280;65656;51.130;13.658;2023-08-08T15:12:24;98830.53;;;20.34;50.17
76732;BME280;65656;51.130;13.658;2023-08-08T15:16:25;98827.75;;;20.08;50.90
76732;BME280;65656;51.130;13.658;2023-08-08T15:20:27;98838.22;;;19.93;50.53
76732;BME280;65656;51.130;13.658;2023-08-08T15:24:30;98837.97;;;19.46;51.48
76732;BME280;65656;51.130;13.658;2023-08-08T15:28:31;98845.72;;;20.36;52.75
76732;BME280;65656;51.130;13.658;2023-08-08T15:32:33;98841.16;;;20.57;49.46
76732;BME280;65656;51.130;13.658;2023-08-08T15:36:35;98834.28;;;20.12;50.08
76732;BME280;65656;51.130;13.658;2023-08-08T15:40:38;98850.06;;;19.11;52.56
76732;BME280;65656;51.130;13.658;2023-08-08T15:44:41;98855.97;;;18.78;54.40
76732;BME280;65656;51.130;13.658;2023-08-08T15:48:43;98858.28;;;18.40;54.29
76732;BME280;65656;51.130;13.658;2023-08-08T15:52:45;98870.00;;;18.15;54.08
76732;BME280;65656;51.130;13.658;2023-08-08T15:56:48;98888.94;;;17.99;54.31
76732;BME280;65656;51.130;13.658;2023-08-08T16:00:49;98894.41;;;17.63;56.10
76732;BME280;65656;51.130;13.658;2023-08-08T16:04:51;98889.50;;;17.46;56.64
76732;BME280;65656;51.130;13.658;2023-08-08T16:08:53;98900.06;;;17.44;56.30
76732;BME280;65656;51.130;13.658;2023-08-08T16:12:56;98905.31;;;17.59;56.92
76732;BME280;65656;51.130;13.658;2023-08-08T16:16:57;98909.06;;;17.49;56.89
76732;BME280;65656;51.130;13.658;2023-08-08T16:21:02;98904.44;;;17.59;56.22
76732;BME280;65656;51.130;13.658;2023-08-08T16:25:05;98904.88;;;17.52;56.69
76732;BME280;65656;51.130;13.658;2023-08-08T16:29:08;98920.06;;;17.41;56.09
76732;BME280;65656;51.130;13.658;2023-08-08T16:33:09;98933.50;;;17.20;58.98
76732;BME280;65656;51.130;13.658;2023-08-08T16:37:11;98944.81;;;16.91;61.63
76732;BME280;65656;51.130;13.658;2023-08-08T16:41:13;98948.84;;;16.80;64.17
76732;BME280;65656;51.130;13.658;2023-08-08T16:45:16;98946.09;;;16.61;64.20
76732;BME280;65656;51.130;13.658;2023-08-08T16:49:18;98936.66;;;16.62;63.89
76732;BME280;65656;51.130;13.658;2023-08-08T16:53:19;98939.75;;;16.60;64.64
76732;BME280;65656;51.130;13.658;2023-08-08T16:57:21;98938.47;;;16.71;65.35
76732;BME280;65656;51.130;13.658;2023-08-08T17:01:24;98929.19;;;16.81;64.90
76732;BME280;65656;51.130;13.658;2023-08-08T17:05:25;98935.13;;;16.75;65.82
76732;BME280;65656;51.130;13.658;2023-08-08T17:09:27;98938.22;;;16.87;67.62
76732;BME280;65656;51.130;13.658;2023-08-08T17:13:28;98924.66;;;16.71;69.18
76732;BME280;65656;51.130;13.658;2023-08-08T17:17:31;98924.78;;;16.61;70.28
76732;BME280;65656;51.130;13.658;2023-08-08T17:21:33;98919.94;;;16.53;70.59
76732;BME280;65656;51.130;13.658;2023-08-08T17:25:35;98920.97;;;16.57;71.46
76732;BME280;65656;51.130;13.658;2023-08-08T17:29:36;98915.91;;;16.46;72.21
76732;BME280;65656;51.130;13.658;2023-08-08T17:33:39;98918.03;;;16.35;71.14
76732;BME280;65656;51.130;13.658;2023-08-08T17:37:41;98923.84;;;16.14;71.68
76732;BME280;65656;51.130;13.658;2023-08-08T17:41:43;98931.84;;;15.97;72.83
76732;BME280;65656;51.130;13.658;2023-08-08T17:45:44;98931.59;;;15.94;73.07
76732;BME280;65656;51.130;13.658;2023-08-08T17:49:47;98914.97;;;15.80;74.04
76732;BME280;65656;51.130;13.658;2023-08-08T17:53:49;98919.78;;;15.69;74.54
76732;BME280;65656;51.130;13.658;2023-08-08T17:57:51;98916.13;;;15.50;77.03
76732;BME280;65656;51.130;13.658;2023-08-08T18:01:53;98917.31;;;15.44;76.67
76732;BME280;65656;51.130;13.658;2023-08-08T18:05:57;98924.13;;;15.51;76.50
76732;BME280;65656;51.130;13.658;2023-08-08T18:09:59;98926.53;;;15.34;77.32
76732;BME280;65656;51.130;13.658;2023-08-08T18:14:00;98919.16;;;15.24;78.43
76732;BME280;65656;51.130;13.658;2023-08-08T18:18:02;98933.88;;;15.20;78.39
76732;BME280;65656;51.130;13.658;2023-08-08T18:22:05;98938.19;;;15.02;80.05
76732;BME280;65656;51.130;13.658;2023-08-08T18:26:07;98935.81;;;14.90;80.63
76732;BME280;65656;51.130;13.658;2023-08-08T18:30:09;98936.34;;;14.92;80.03
76732;BME280;65656;51.130;13.658;2023-08-08T18:34:11;98940.84;;;14.83;80.95
76732;BME280;65656;51.130;13.658;2023-08-08T18:38:14;98941.84;;;14.63;82.00
76732;BME280;65656;51.130;13.658;2023-08-08T18:42:15;98941.69;;;14.44;83.00
76732;BME280;65656;51.130;13.658;2023-08-08T18:46:17;98947.28;;;14.34;83.37
76732;BME280;65656;51.130;13.658;2023-08-08T18:50:19;98961.97;;;14.19;84.03
76732;BME280;65656;51.130;13.658;2023-08-08T18:54:22;98965.09;;;14.03;85.63
76732;BME280;65656;51.130;13.658;2023-08-08T18:58:23;98972.25;;;14.04;85.19
76732;BME280;65656;51.130;13.658;2023-08-08T19:02:25;98967.28;;;14.01;85.26
76732;BME280;65656;51.130;13.658;2023-08-08T19:06:27;98965.69;;;13.94;85.72
76732;BME280;65656;51.130;13.658;2023-08-08T19:10:30;98967.13;;;13.87;85.98
76732;BME280;65656;51.130;13.658;2023-08-08T19:14:32;98958.63;;;13.78;86.49
76732;BME280;65656;51.130;13.658;2023-08-08T19:18:33;98964.78;;;13.55;88.79
76732;BME280;65656;51.130;13.658;2023-08-08T19:22:35;98962.03;;;13.50;88.36
76732;BME280;65656;51.130;13.658;2023-08-08T19:26:38;98958.50;;;13.39;89.27
76732;BME280;65656;51.130;13.658;2023-08-08T19:30:39;98947.53;;;13.24;90.87
76732;BME280;65656;51.130;13.658;2023-08-08T19:34:41;98949.47;;;13.08;92.66
76732;BME280;65656;51.130;13.658;2023-08-08T19:38:43;98958.25;;;13.10;92.70
76732;BME280;65656;51.130;13.658;2023-08-08T19:42:46;98957.44;;;13.20;91.75
76732;BME280;65656;51.130;13.658;2023-08-08T19:46:48;98968.69;;;13.38;91.02
76732;BME280;65656;51.130;13.658;2023-08-08T19:50:49;98975.53;;;13.41;90.44
76732;BME280;65656;51.130;13.658;2023-08-08T19:54:51;98962.03;;;13.45;91.24
76732;BME280;65656;51.130;13.658;2023-08-08T19:58:54;98969.22;;;13.41;92.32
76732;BME280;65656;51.130;13.658;2023-08-08T20:02:55;98964.25;;;13.43;91.89
76732;BME280;65656;51.130;13.658;2023-08-08T20:06:57;98952.13;;;13.44;90.90
76732;BME280;65656;51.130;13.658;2023-08-08T20:10:59;98950.50;;;13.43;92.02
76732;BME280;65656;51.130;13.658;2023-08-08T20:15:02;98940.06;;;13.40;93.87
76732;BME280;65656;51.130;13.658;2023-08-08T20:19:04;98950.78;;;13.36;92.44
76732;BME280;65656;51.130;13.658;2023-08-08T20:23:05;98957.13;;;13.26;93.31
76732;BME280;65656;51.130;13.658;2023-08-08T20:27:07;98954.97;;;13.23;93.59
76732;BME280;65656;51.130;13.658;2023-08-08T20:31:10;98957.72;;;13.23;94.40
76732;BME280;65656;51.130;13.658;2023-08-08T20:35:13;98958.25;;;13.20;96.18
76732;BME280;65656;51.130;13.658;2023-08-08T20:39:14;98951.06;;;13.19;93.99
76732;BME280;65656;51.130;13.658;2023-08-08T20:43:18;98963.19;;;13.13;94.95
76732;BME280;65656;51.130;13.658;2023-08-08T20:47:21;98953.28;;;13.12;94.59
76732;BME280;65656;51.130;13.658;2023-08-08T20:51:23;98961.53;;;13.22;94.49
76732;BME280;65656;51.130;13.658;2023-08-08T20:55:24;98967.59;;;13.24;95.36
76732;BME280;65656;51.130;13.658;2023-08-08T20:59:26;98956.31;;;13.21;94.81
76732;BME280;65656;51.130;13.658;2023-08-08T21:03:29;98969.25;;;13.10;96.78